sensor_id;sensor_type;location;lat;lon;timestamp;pressure;altitude;pressure_sealevel;temperature;humidity
56038;BME280;41907;47.848;9.000;2023-10-13T00:01:26;96019.81;;;13.46;100.00
56038;BME280;41907;47.848;9.000;2023-10-13T00:03:51;96024.53;;;13.31;100.00
56038;BME280;41907;47.848;9.000;2023-10-13T00:06:18;96023.59;;;13.10;100.00
56038;BME280;41907;47.848;9.000;2023-10-13T00:08:44;96021.25;;;13.00;100.00
56038;BME280;41907;47.848;9.000;2023-10-13T00:11:14;96018.09;;;12.98;100.00
56038;BME280;41907;47.848;9.000;2023-10-13T00:13:40;96019.50;;;13.04;100.00
56038;BME280;41907;47.848;9.000;2023-10-13T00:16:09;96026.13;;;12.98;100.00
56038;BME280;41907;47.848;9.000;2023-10-13T00:18:42;96017.78;;;12.91;100.00
56038;BME280;41907;47.848;9.000;2023-10-13T00:21:09;96022.78;;;12.84;100.00
56038;BME280;41907;47.848;9.000;2023-10-13T00:23:43;96017.44;;;12.84;100.00
56038;BME280;41907;47.848;9.000;2023-10-13T00:26:25;96019.34;;;12.83;100.00
56038;BME280;41907;47.848;9.000;2023-10-13T00:28:54;96011.94;;;12.72;100.00
56038;BME280;41907;47.848;9.000;2023-10-13T00:31:32;96022.00;;;12.75;100.00
56038;BME280;41907;47.848;9.000;2023-10-13T00:34:01;96017.78;;;12.74;100.00
56038;BME280;41907;47.848;9.000;2023-10-13T00:36:47;96015.41;;;12.63;100.00
56038;BME280;41907;47.848;9.000;2023-10-13T00:39:31;96008.78;;;12.61;100.00
56038;BME280;41907;47.848;9.000;2023-10-13T00:42:01;96010.50;;;12.57;100.00
56038;BME280;41907;47.848;9.000;2023-10-13T00:44:32;96012.72;;;12.55;100.00
56038;BME280;41907;47.848;9.000;2023-10-13T00:47:08;96015.41;;;12.55;100.00
56038;BME280;41907;47.848;9.000;2023-10-13T00:49:35;96008.91;;;12.47;100.00
56038;BME280;41907;47.848;9.000;2023-10-13T00:52:06;96015.53;;;12.50;100.00
56038;BME280;41907;47.848;9.000;2023-10-13T00:54:32;96017.09;;;12.51;100.00
56038;BME280;41907;47.848;9.000;2023-10-13T00:57:00;96011.44;;;12.52;100.00
56038;BME280;41907;47.848;9.000;2023-10-13T00:59:52;96011.94;;;12.63;100.00
56038;BME280;41907;47.848;9.000;2023-10-13T01:02:19;96013.03;;;12.62;100.00
56038;BME280;41907;47.848;9.000;2023-10-13T01:05:06;96018.88;;;12.73;100.00
56038;BME280;41907;47.848;9.000;2023-10-13T01:07:35;96010.19;;;12.67;100.00
56038;BME280;41907;47.848;9.000;2023-10-13T01:10:09;96009.69;;;12.56;100.00
56038;BME280;41907;47.848;9.000;2023-10-13T01:12:38;96009.88;;;12.60;100.00
56038;BME280;41907;47.848;9.000;2023-10-13T01:15:03;96000.09;;;12.55;100.00
56038;BME280;41907;47.848;9.000;2023-10-13T01:17:33;96010.97;;;12.50;100.00
56038;BME280;41907;47.848;9.000;2023-10-13T01:19:59;96010.81;;;12.55;100.00
56038;BME280;41907;47.848;9.000;2023-10-13T01:22:25;96008.78;;;12.52;100.00
56038;BME280;41907;47.848;9.000;2023-10-13T01:24:50;96001.97;;;12.46;100.00
56038;BME280;41907;47.848;9.000;2023-10-13T01:27:16;95999.63;;;12.45;100.00
56038;BME280;41907;47.848;9.000;2023-10-13T01:29:50;95993.50;;;12.44;100.00
56038;BME280;41907;47.848;9.000;2023-10-13T01:32:22;95998.50;;;12.46;100.00
56038;BME280;41907;47.848;9.000;2023-10-13T01:34:48;95994.72;;;12.38;100.00
56038;BME280;41907;47.848;9.000;2023-10-13T01:37:15;95992.53;;;12.32;100.00
56038;BME280;41907;47.848;9.000;2023-10-13T01:39:44;95996.91;;;12.27;100.00
56038;BME280;41907;47.848;9.000;2023-10-13T01:42:12;95988.44;;;12.25;100.00
56038;BME280;41907;47.848;9.000;2023-10-13T01:44:39;95993.91;;;12.20;100.00
56038;BME280;41907;47.848;9.000;2023-10-13T01:47:05;95988.88;;;12.19;100.00
56038;BME280;41907;47.848;9.000;2023-10-13T01:49:34;95983.22;;;12.20;100.00
56038;BME280;41907;47.848;9.000;2023-10-13T01:52:12;95980.84;;;12.19;100.00
56038;BME280;41907;47.848;9.000;2023-10-13T01:54:41;95994.09;;;12.24;100.00
56038;BME280;41907;47.848;9.000;2023-10-13T01:57:09;95985.09;;;12.20;100.00
56038;BME280;41907;47.848;9.000;2023-10-13T01:59:45;95982.88;;;12.13;100.00
56038;BME280;41907;47.848;9.000;2023-10-13T02:02:11;95984.94;;;12.08;100.00
56038;BME280;41907;47.848;9.000;2023-10-13T02:04:42;95978.41;;;11.91;100.00
56038;BME280;41907;47.848;9.000;2023-10-13T02:07:15;95984.38;;;11.88;100.00
56038;BME280;41907;47.848;9.000;2023-10-13T02:09:41;95979.16;;;11.83;100.00
56038;BME280;41907;47.848;9.000;2023-10-13T02:12:08;95979.41;;;11.73;100.00
56038;BME280;41907;47.848;9.000;2023-10-13T02:14:35;95980.34;;;11.69;100.00
56038;BME280;41907;47.848;9.000;2023-10-13T02:17:02;95981.44;;;11.68;100.00
56038;BME280;41907;47.848;9.000;2023-10-13T02:19:42;95985.31;;;11.62;100.00
56038;BME280;41907;47.848;9.000;2023-10-13T02:22:12;95981.97;;;11.47;100.00
56038;BME280;41907;47.848;9.000;2023-10-13T02:24:37;95981.28;;;11.42;100.00
56038;BME280;41907;47.848;9.000;2023-10-13T02:27:08;95979.81;;;11.27;100.00
56038;BME280;41907;47.848;9.000;2023-10-13T02:29:40;95980.78;;;11.31;100.00
56038;BME280;41907;47.848;9.000;2023-10-13T02:32:07;95985.44;;;11.26;100.00
56038;BME280;41907;47.848;9.000;2023-10-13T02:34:44;95988.84;;;11.17;100.00
56038;BME280;41907;47.848;9.000;2023-10-13T02:37:10;95990.09;;;11.11;100.00
56038;BME280;41907;47.848;9.000;2023-10-13T02:39:36;95985.16;;;11.05;100.00
56038;BME280;41907;47.848;9.000;2023-10-13T02:42:02;95984.69;;;11.03;100.00
56038;BME280;41907;47.848;9.000;2023-10-13T02:44:35;95973.28;;;10.89;100.00
56038;BME280;41907;47.848;9.000;2023-10-13T02:47:02;95976.06;;;10.84;100.00
56038;BME280;41907;47.848;9.000;2023-10-13T02:49:48;95985.56;;;10.76;100.00
56038;BME280;41907;47.848;9.000;2023-10-13T02:52:14;95977.25;;;10.77;100.00
56038;BME280;41907;47.848;9.000;2023-10-13T02:54:40;95977.09;;;10.74;100.00
56038;BME280;41907;47.848;9.000;2023-10-13T02:57:12;95972.06;;;10.72;100.00
56038;BME280;41907;47.848;9.000;2023-10-13T02:59:38;95979.75;;;10.74;100.00
56038;BME280;41907;47.848;9.000;2023-10-13T03:02:07;95966.59;;;10.77;100.00
56038;BME280;41907;47.848;9.000;2023-10-13T03:04:54;95967.38;;;10.78;100.00
56038;BME280;41907;47.848;9.000;2023-10-13T03:07:25;95963.81;;;10.82;100.00
56038;BME280;41907;47.848;9.000;2023-10-13T03:09:54;95964.59;;;10.83;100.00
56038;BME280;41907;47.848;9.000;2023-10-13T03:12:23;95963.97;;;10.86;100.00
56038;BME280;41907;47.848;9.000;2023-10-13T03:14:50;95955.38;;;10.89;100.00
56038;BME280;41907;47.848;9.000;2023-10-13T03:17:22;95954.28;;;10.90;100.00
56038;BME280;41907;47.848;9.000;2023-10-13T03:19:59;95959.50;;;10.95;100.00
56038;BME280;41907;47.848;9.000;2023-10-13T03:22:26;95953.75;;;11.02;100.00
56038;BME280;41907;47.848;9.000;2023-10-13T03:25:00;95948.41;;;11.02;100.00
56038;BME280;41907;47.848;9.000;2023-10-13T03:27:30;95949.19;;;11.02;100.00
56038;BME280;41907;47.848;9.000;2023-10-13T03:30:05;95937.75;;;11.02;100.00
56038;BME280;41907;47.848;9.000;2023-10-13T03:32:38;95930.34;;;10.99;100.00
56038;BME280;41907;47.848;9.000;2023-10-13T03:35:09;95936.66;;;11.03;100.00
56038;BME280;41907;47.848;9.000;2023-10-13T03:37:52;95928.81;;;11.06;100.00
56038;BME280;41907;47.848;9.000;2023-10-13T03:40:18;95929.59;;;11.07;100.00
56038;BME280;41907;47.848;9.000;2023-10-13T03:42:53;95923.94;;;11.08;100.00
56038;BME280;41907;47.848;9.000;2023-10-13T03:45:41;95926.81;;;11.12;100.00
56038;BME280;41907;47.848;9.000;2023-10-13T03:48:12;95922.72;;;11.14;100.00
56038;BME280;41907;47.848;9.000;2023-10-13T03:50:49;95922.41;;;11.16;100.00
56038;BME280;41907;47.848;9.000;2023-10-13T03:53:37;95927.47;;;11.17;100.00
56038;BME280;41907;47.848;9.000;2023-10-13T03:56:17;95918.41;;;11.27;100.00
56038;BME280;41907;47.848;9.000;2023-10-13T03:58:52;95923.00;;;11.35;100.00
56038;BME280;41907;47.848;9.000;2023-10-13T04:01:22;95922.00;;;11.23;100.00
56038;BME280;41907;47.848;9.000;2023-10-13T04:03:59;95920.00;;;11.06;100.00
56038;BME280;41907;47.848;9.000;2023-10-13T04:06:38;95921.84;;;10.97;100.00
56038;BME280;41907;47.848;9.000;2023-10-13T04:09:19;95923.56;;;10.93;100.00
56038;BME280;41907;47.848;9.000;2023-10-13T04:12:15;95929.06;;;10.74;100.00
56038;BME280;41907;47.848;9.000;2023-10-13T04:15:09;95918.88;;;10.54;100.00
56038;BME280;41907;47.848;9.000;2023-10-13T04:17:34;95916.44;;;10.43;100.00
56038;BME280;41907;47.848;9.000;2023-10-13T04:20:06;95920.72;;;10.31;100.00
56038;BME280;41907;47.848;9.000;2023-10-13T04:22:32;95916.59;;;10.25;100.00
56038;BME280;41907;47.848;9.000;2023-10-13T04:27:56;95918.91;;;10.18;100.00
56038;BME280;41907;47.848;9.000;2023-10-13T04:30:47;95913.81;;;10.16;100.00
56038;BME280;41907;47.848;9.000;2023-10-13T04:33:30;95913.34;;;10.14;100.00
56038;BME280;41907;47.848;9.000;2023-10-13T04:36:14;95906.25;;;10.10;100.00
56038;BME280;41907;47.848;9.000;2023-10-13T04:38:54;95909.22;;;9.94;100.00
56038;BME280;41907;47.848;9.000;2023-10-13T04:41:29;95899.06;;;9.83;100.00
56038;BME280;41907;47.848;9.000;2023-10-13T04:44:03;95896.91;;;9.85;100.00
56038;BME280;41907;47.848;9.000;2023-10-13T04:46:47;95907.94;;;9.92;100.00
56038;BME280;41907;47.848;9.000;2023-10-13T04:49:13;95899.94;;;9.92;100.00
56038;BME280;41907;47.848;9.000;2023-10-13T04:51:58;95906.56;;;9.94;100.00
56038;BME280;41907;47.848;9.000;2023-10-13T04:54:42;95903.59;;;9.96;100.00
56038;BME280;41907;47.848;9.000;2023-10-13T04:57:19;95907.25;;;10.00;100.00
56038;BME280;41907;47.848;9.000;2023-10-13T04:59:47;95901.59;;;10.01;100.00
56038;BME280;41907;47.848;9.000;2023-10-13T05:02:33;95899.94;;;10.05;100.00
56038;BME280;41907;47.848;9.000;2023-10-13T05:05:07;95908.41;;;10.07;100.00
56038;BME280;41907;47.848;9.000;2023-10-13T05:07:42;95901.22;;;10.08;100.00
56038;BME280;41907;47.848;9.000;2023-10-13T05:10:27;95908.78;;;10.15;100.00
56038;BME280;41907;47.848;9.000;2023-10-13T05:13:11;95904.66;;;10.22;100.00
56038;BME280;41907;47.848;9.000;2023-10-13T05:15:56;95906.59;;;10.30;100.00
56038;BME280;41907;47.848;9.000;2023-10-13T05:18:39;95898.22;;;10.37;100.00
56038;BME280;41907;47.848;9.000;2023-10-13T05:21:23;95898.28;;;10.46;100.00
56038;BME280;41907;47.848;9.000;2023-10-13T05:24:08;95901.59;;;10.51;100.00
56038;BME280;41907;47.848;9.000;2023-10-13T05:26:52;95906.63;;;10.53;100.00
56038;BME280;41907;47.848;9.000;2023-10-13T05:29:45;95901.09;;;10.49;100.00
56038;BME280;41907;47.848;9.000;2023-10-13T05:32:30;95904.56;;;10.50;100.00
56038;BME280;41907;47.848;9.000;2023-10-13T05:35:15;95906.72;;;10.48;100.00
56038;BME280;41907;47.848;9.000;2023-10-13T05:37:59;95902.53;;;10.47;100.00
56038;BME280;41907;47.848;9.000;2023-10-13T05:40:57;95908.09;;;10.59;100.00
56038;BME280;41907;47.848;9.000;2023-10-13T05:43:42;95910.03;;;10.67;100.00
56038;BME280;41907;47.848;9.000;2023-10-13T05:46:26;95915.53;;;10.70;100.00
56038;BME280;41907;47.848;9.000;2023-10-13T05:48:52;95914.47;;;10.71;100.00
56038;BME280;41907;47.848;9.000;2023-10-13T05:51:24;95906.09;;;10.64;100.00
56038;BME280;41907;47.848;9.000;2023-10-13T05:54:02;95913.72;;;10.57;100.00
56038;BME280;41907;47.848;9.000;2023-10-13T05:59:28;95911.91;;;10.66;100.00
56038;BME280;41907;47.848;9.000;2023-10-13T06:02:15;95914.81;;;10.78;100.00
56038;BME280;41907;47.848;9.000;2023-10-13T06:05:10;95911.00;;;10.93;100.00
56038;BME280;41907;47.848;9.000;2023-10-13T06:07:54;95907.34;;;11.11;100.00
56038;BME280;41907;47.848;9.000;2023-10-13T06:10:39;95911.94;;;11.19;100.00
56038;BME280;41907;47.848;9.000;2023-10-13T06:13:23;95908.06;;;11.34;100.00
56038;BME280;41907;47.848;9.000;2023-10-13T06:18:55;95920.44;;;10.99;100.00
56038;BME280;41907;47.848;9.000;2023-10-13T06:21:39;95913.78;;;10.88;100.00
56038;BME280;41907;47.848;9.000;2023-10-13T06:24:23;95919.66;;;10.99;100.00
56038;BME280;41907;47.848;9.000;2023-10-13T06:27:07;95919.59;;;11.12;100.00
56038;BME280;41907;47.848;9.000;2023-10-13T06:29:51;95917.56;;;11.18;100.00
56038;BME280;41907;47.848;9.000;2023-10-13T06:32:19;95919.78;;;11.25;100.00
56038;BME280;41907;47.848;9.000;2023-10-13T06:34:45;95919.88;;;11.42;100.00
56038;BME280;41907;47.848;9.000;2023-10-13T06:37:14;95925.44;;;11.54;100.00
56038;BME280;41907;47.848;9.000;2023-10-13T06:39:50;95916.00;;;11.87;100.00
56038;BME280;41907;47.848;9.000;2023-10-13T06:42:16;95920.28;;;12.06;100.00
56038;BME280;41907;47.848;9.000;2023-10-13T06:44:43;95926.44;;;12.41;100.00
56038;BME280;41907;47.848;9.000;2023-10-13T06:47:12;95915.06;;;13.21;100.00
56038;BME280;41907;47.848;9.000;2023-10-13T06:49:41;95923.47;;;14.46;100.00
56038;BME280;41907;47.848;9.000;2023-10-13T06:52:09;95927.72;;;15.79;95.93
56038;BME280;41907;47.848;9.000;2023-10-13T06:54:38;95918.44;;;17.21;86.40
56038;BME280;41907;47.848;9.000;2023-10-13T06:57:07;95921.72;;;18.20;79.35
56038;BME280;41907;47.848;9.000;2023-10-13T06:59:35;95936.50;;;19.58;69.50
56038;BME280;41907;47.848;9.000;2023-10-13T07:02:06;95923.28;;;20.51;64.30
56038;BME280;41907;47.848;9.000;2023-10-13T07:04:33;95929.00;;;21.02;61.10
56038;BME280;41907;47.848;9.000;2023-10-13T07:06:59;95935.38;;;21.54;58.62
56038;BME280;41907;47.848;9.000;2023-10-13T07:09:26;95932.53;;;22.28;55.36
56038;BME280;41907;47.848;9.000;2023-10-13T07:12:15;95940.69;;;22.83;53.63
56038;BME280;41907;47.848;9.000;2023-10-13T07:14:50;95954.19;;;23.55;50.43
56038;BME280;41907;47.848;9.000;2023-10-13T07:17:36;95943.97;;;23.27;50.65
56038;BME280;41907;47.848;9.000;2023-10-13T07:20:05;95954.63;;;23.68;49.97
56038;BME280;41907;47.848;9.000;2023-10-13T07:23:00;95952.69;;;24.54;47.16
56038;BME280;41907;47.848;9.000;2023-10-13T07:25:34;95965.34;;;25.31;45.12
56038;BME280;41907;47.848;9.000;2023-10-13T07:28:06;95961.78;;;25.41;44.92
56038;BME280;41907;47.848;9.000;2023-10-13T07:30:35;95958.44;;;25.05;45.05
56038;BME280;41907;47.848;9.000;2023-10-13T07:33:27;95960.88;;;24.54;46.45
56038;BME280;41907;47.848;9.000;2023-10-13T07:36:05;95955.59;;;25.37;44.14
56038;BME280;41907;47.848;9.000;2023-10-13T07:38:53;95954.00;;;25.40;44.51
56038;BME280;41907;47.848;9.000;2023-10-13T07:41:37;95961.66;;;26.25;42.22
56038;BME280;41907;47.848;9.000;2023-10-13T07:44:02;95961.13;;;25.92;43.15
56038;BME280;41907;47.848;9.000;2023-10-13T07:46:30;95965.72;;;25.33;44.08
56038;BME280;41907;47.848;9.000;2023-10-13T07:48:58;95967.50;;;26.30;42.82
56038;BME280;41907;47.848;9.000;2023-10-13T07:51:36;95966.16;;;27.58;40.42
56038;BME280;41907;47.848;9.000;2023-10-13T07:54:14;95961.78;;;27.34;40.27
56038;BME280;41907;47.848;9.000;2023-10-13T07:56:47;95964.94;;;26.98;40.86
56038;BME280;41907;47.848;9.000;2023-10-13T07:59:12;95965.78;;;27.26;40.36
56038;BME280;41907;47.848;9.000;2023-10-13T08:01:40;95967.66;;;27.32;40.85
56038;BME280;41907;47.848;9.000;2023-10-13T08:04:09;95962.91;;;27.02;41.30
56038;BME280;41907;47.848;9.000;2023-10-13T08:06:38;95960.66;;;26.94;41.55
56038;BME280;41907;47.848;9.000;2023-10-13T08:09:08;95954.66;;;27.70;40.29
56038;BME280;41907;47.848;9.000;2023-10-13T08:11:37;95963.00;;;28.13;39.30
56038;BME280;41907;47.848;9.000;2023-10-13T08:14:04;95966.47;;;26.99;41.64
56038;BME280;41907;47.848;9.000;2023-10-13T08:16:59;95963.28;;;26.67;43.33
56038;BME280;41907;47.848;9.000;2023-10-13T08:19:26;95945.19;;;26.36;41.86
56038;BME280;41907;47.848;9.000;2023-10-13T08:21:54;95956.72;;;26.09;43.20
56038;BME280;41907;47.848;9.000;2023-10-13T08:24:46;95950.81;;;26.14;42.22
56038;BME280;41907;47.848;9.000;2023-10-13T08:27:14;95948.44;;;26.64;41.92
56038;BME280;41907;47.848;9.000;2023-10-13T08:29:43;95940.56;;;27.95;38.53
56038;BME280;41907;47.848;9.000;2023-10-13T08:32:30;95944.84;;;28.93;34.79
56038;BME280;41907;47.848;9.000;2023-10-13T08:34:56;95943.69;;;29.30;34.77
56038;BME280;41907;47.848;9.000;2023-10-13T08:37:27;95949.78;;;29.93;32.41
56038;BME280;41907;47.848;9.000;2023-10-13T08:39:56;95939.59;;;30.59;31.77
56038;BME280;41907;47.848;9.000;2023-10-13T08:42:35;95933.22;;;30.62;32.22
56038;BME280;41907;47.848;9.000;2023-10-13T08:45:10;95940.03;;;31.31;30.61
56038;BME280;41907;47.848;9.000;2023-10-13T08:47:52;95945.13;;;30.88;31.89
56038;BME280;41907;47.848;9.000;2023-10-13T08:50:48;95942.31;;;31.20;30.76
56038;BME280;41907;47.848;9.000;2023-10-13T08:53:23;95935.47;;;31.25;30.75
56038;BME280;41907;47.848;9.000;2023-10-13T08:56:09;95943.63;;;31.70;30.19
56038;BME280;41907;47.848;9.000;2023-10-13T08:58:42;95931.31;;;31.46;31.39
56038;BME280;41907;47.848;9.000;2023-10-13T09:01:28;95926.63;;;31.71;30.14
56038;BME280;41907;47.848;9.000;2023-10-13T09:04:17;95913.41;;;31.79;30.06
56038;BME280;41907;47.848;9.000;2023-10-13T09:07:03;95927.50;;;32.32;30.03
56038;BME280;41907;47.848;9.000;2023-10-13T09:09:51;95924.97;;;32.25;28.65
56038;BME280;41907;47.848;9.000;2023-10-13T09:12:27;95927.38;;;32.10;29.18
56038;BME280;41907;47.848;9.000;2023-10-13T09:15:01;95929.31;;;31.88;29.10
56038;BME280;41907;47.848;9.000;2023-10-13T09:17:49;95919.56;;;31.16;29.62
56038;BME280;41907;47.848;9.000;2023-10-13T09:20:30;95918.19;;;30.66;30.70
56038;BME280;41907;47.848;9.000;2023-10-13T09:23:13;95919.84;;;30.77;31.14
56038;BME280;41907;47.848;9.000;2023-10-13T09:25:49;95919.38;;;31.77;29.25
56038;BME280;41907;47.848;9.000;2023-10-13T09:28:24;95919.56;;;32.34;27.70
56038;BME280;41907;47.848;9.000;2023-10-13T09:30:54;95927.13;;;32.55;28.65
56038;BME280;41907;47.848;9.000;2023-10-13T09:33:27;95923.00;;;32.94;27.12
56038;BME280;41907;47.848;9.000;2023-10-13T09:36:04;95920.38;;;33.12;27.18
56038;BME280;41907;47.848;9.000;2023-10-13T09:38:32;95911.38;;;32.77;27.91
56038;BME280;41907;47.848;9.000;2023-10-13T09:40:58;95912.38;;;33.27;27.94
56038;BME280;41907;47.848;9.000;2023-10-13T09:43:27;95903.44;;;33.76;26.17
56038;BME280;41907;47.848;9.000;2023-10-13T09:45:59;95900.13;;;33.59;26.24
56038;BME280;41907;47.848;9.000;2023-10-13T09:48:39;95899.94;;;33.84;27.03
56038;BME280;41907;47.848;9.000;2023-10-13T09:51:15;95893.53;;;34.06;26.29
56038;BME280;41907;47.848;9.000;2023-10-13T09:53:53;95882.94;;;34.13;25.56
56038;BME280;41907;47.848;9.000;2023-10-13T09:56:29;95886.75;;;33.57;25.90
56038;BME280;41907;47.848;9.000;2023-10-13T09:59:01;95888.13;;;33.62;26.41
56038;BME280;41907;47.848;9.000;2023-10-13T10:01:37;95881.69;;;33.96;26.31
56038;BME280;41907;47.848;9.000;2023-10-13T10:04:08;95885.38;;;34.02;27.05
56038;BME280;41907;47.848;9.000;2023-10-13T10:06:36;95879.84;;;33.71;28.66
56038;BME280;41907;47.848;9.000;2023-10-13T10:09:09;95877.41;;;33.73;27.09
56038;BME280;41907;47.848;9.000;2023-10-13T10:14:49;95877.34;;;32.46;29.37
56038;BME280;41907;47.848;9.000;2023-10-13T10:17:21;95884.28;;;33.07;29.05
56038;BME280;41907;47.848;9.000;2023-10-13T10:19:51;95875.50;;;33.61;27.93
56038;BME280;41907;47.848;9.000;2023-10-13T10:22:30;95869.00;;;33.77;26.87
56038;BME280;41907;47.848;9.000;2023-10-13T10:24:59;95864.75;;;32.79;26.10
56038;BME280;41907;47.848;9.000;2023-10-13T10:27:28;95867.75;;;32.72;28.21
56038;BME280;41907;47.848;9.000;2023-10-13T10:29:55;95865.38;;;33.27;28.90
56038;BME280;41907;47.848;9.000;2023-10-13T10:32:20;95876.09;;;33.47;27.42
56038;BME280;41907;47.848;9.000;2023-10-13T10:34:46;95863.59;;;33.73;27.69
56038;BME280;41907;47.848;9.000;2023-10-13T10:37:12;95855.03;;;33.89;27.28
56038;BME280;41907;47.848;9.000;2023-10-13T10:39:38;95859.72;;;34.11;25.92
56038;BME280;41907;47.848;9.000;2023-10-13T10:42:13;95852.09;;;33.44;25.42
56038;BME280;41907;47.848;9.000;2023-10-13T10:44:51;95843.75;;;33.66;26.20
56038;BME280;41907;47.848;9.000;2023-10-13T10:47:21;95846.47;;;33.56;26.34
56038;BME280;41907;47.848;9.000;2023-10-13T10:49:57;95852.47;;;34.04;26.34
56038;BME280;41907;47.848;9.000;2023-10-13T10:52:23;95839.75;;;33.67;26.73
56038;BME280;41907;47.848;9.000;2023-10-13T10:54:59;95837.59;;;33.09;25.58
56038;BME280;41907;47.848;9.000;2023-10-13T10:57:24;95838.75;;;33.20;29.02
56038;BME280;41907;47.848;9.000;2023-10-13T10:59:54;95830.72;;;32.01;26.86
56038;BME280;41907;47.848;9.000;2023-10-13T11:02:36;95827.78;;;32.64;26.47
56038;BME280;41907;47.848;9.000;2023-10-13T11:05:01;95819.06;;;31.59;28.34
56038;BME280;41907;47.848;9.000;2023-10-13T11:07:27;95819.13;;;32.06;26.12
56038;BME280;41907;47.848;9.000;2023-10-13T11:09:53;95807.16;;;32.56;27.56
56038;BME280;41907;47.848;9.000;2023-10-13T11:12:31;95800.56;;;32.75;27.58
56038;BME280;41907;47.848;9.000;2023-10-13T11:15:06;95791.09;;;32.85;26.91
56038;BME280;41907;47.848;9.000;2023-10-13T11:17:51;95783.59;;;33.17;25.47
56038;BME280;41907;47.848;9.000;2023-10-13T11:20:20;95781.03;;;33.22;26.68
56038;BME280;41907;47.848;9.000;2023-10-13T11:23:12;95779.94;;;33.20;27.49
56038;BME280;41907;47.848;9.000;2023-10-13T11:25:37;95768.66;;;33.05;25.84
56038;BME280;41907;47.848;9.000;2023-10-13T11:28:13;95771.97;;;33.22;27.07
56038;BME280;41907;47.848;9.000;2023-10-13T11:30:48;95757.00;;;33.50;26.93
56038;BME280;41907;47.848;9.000;2023-10-13T11:33:18;95759.50;;;32.43;25.24
56038;BME280;41907;47.848;9.000;2023-10-13T11:35:44;95756.03;;;32.51;27.02
56038;BME280;41907;47.848;9.000;2023-10-13T11:38:21;95757.31;;;32.60;25.34
56038;BME280;41907;47.848;9.000;2023-10-13T11:41:03;95753.28;;;32.30;26.94
56038;BME280;41907;47.848;9.000;2023-10-13T11:46:11;95737.13;;;32.94;25.33
56038;BME280;41907;47.848;9.000;2023-10-13T11:48:37;95738.66;;;32.42;26.35
56038;BME280;41907;47.848;9.000;2023-10-13T11:51:03;95739.47;;;31.35;27.34
56038;BME280;41907;47.848;9.000;2023-10-13T11:53:35;95739.81;;;31.25;28.34
56038;BME280;41907;47.848;9.000;2023-10-13T11:56:02;95730.66;;;30.90;28.14
56038;BME280;41907;47.848;9.000;2023-10-13T11:58:40;95729.13;;;29.89;29.76
56038;BME280;41907;47.848;9.000;2023-10-13T12:01:06;95721.28;;;29.43;28.44
56038;BME280;41907;47.848;9.000;2023-10-13T12:03:34;95715.75;;;28.94;29.83
56038;BME280;41907;47.848;9.000;2023-10-13T12:06:18;95713.19;;;28.08;30.37
56038;BME280;41907;47.848;9.000;2023-10-13T12:09:09;95703.84;;;28.25;32.06
56038;BME280;41907;47.848;9.000;2023-10-13T12:11:44;95705.22;;;28.13;30.69
56038;BME280;41907;47.848;9.000;2023-10-13T12:14:15;95698.97;;;28.13;32.52
56038;BME280;41907;47.848;9.000;2023-10-13T12:16:47;95693.59;;;27.66;30.36
56038;BME280;41907;47.848;9.000;2023-10-13T12:19:23;95691.38;;;27.81;31.57
56038;BME280;41907;47.848;9.000;2023-10-13T12:21:54;95681.06;;;27.89;31.64
56038;BME280;41907;47.848;9.000;2023-10-13T12:24:21;95675.47;;;27.49;32.14
56038;BME280;41907;47.848;9.000;2023-10-13T12:29:28;95673.34;;;27.37;33.78
56038;BME280;41907;47.848;9.000;2023-10-13T12:31:55;95664.78;;;27.35;33.88
56038;BME280;41907;47.848;9.000;2023-10-13T12:34:47;95658.13;;;27.36;34.11
56038;BME280;41907;47.848;9.000;2023-10-13T12:37:29;95652.63;;;27.13;33.19
56038;BME280;41907;47.848;9.000;2023-10-13T12:40:19;95646.34;;;27.16;33.06
56038;BME280;41907;47.848;9.000;2023-10-13T12:43:04;95642.41;;;27.17;32.61
56038;BME280;41907;47.848;9.000;2023-10-13T12:45:49;95640.09;;;27.15;33.98
56038;BME280;41907;47.848;9.000;2023-10-13T12:48:47;95630.00;;;27.09;33.70
56038;BME280;41907;47.848;9.000;2023-10-13T12:51:29;95637.16;;;26.76;32.58
56038;BME280;41907;47.848;9.000;2023-10-13T12:53:58;95629.94;;;26.62;35.22
56038;BME280;41907;47.848;9.000;2023-10-13T12:56:43;95627.13;;;26.69;34.71
56038;BME280;41907;47.848;9.000;2023-10-13T12:59:09;95621.47;;;26.80;34.40
56038;BME280;41907;47.848;9.000;2023-10-13T13:01:39;95627.25;;;26.85;34.75
56038;BME280;41907;47.848;9.000;2023-10-13T13:04:08;95618.75;;;26.80;33.74
56038;BME280;41907;47.848;9.000;2023-10-13T13:06:37;95611.25;;;26.57;33.28
56038;BME280;41907;47.848;9.000;2023-10-13T13:09:05;95607.25;;;26.38;35.11
56038;BME280;41907;47.848;9.000;2023-10-13T13:11:34;95603.63;;;26.45;35.88
56038;BME280;41907;47.848;9.000;2023-10-13T13:14:04;95602.91;;;26.41;35.85
56038;BME280;41907;47.848;9.000;2023-10-13T13:16:33;95601.25;;;26.16;34.72
56038;BME280;41907;47.848;9.000;2023-10-13T13:18:58;95597.63;;;25.96;35.95
56038;BME280;41907;47.848;9.000;2023-10-13T13:21:23;95589.66;;;26.09;36.60
56038;BME280;41907;47.848;9.000;2023-10-13T13:23:52;95587.53;;;25.93;35.07
56038;BME280;41907;47.848;9.000;2023-10-13T13:26:20;95585.31;;;25.84;35.19
56038;BME280;41907;47.848;9.000;2023-10-13T13:28:47;95577.50;;;25.83;35.38
56038;BME280;41907;47.848;9.000;2023-10-13T13:31:22;95570.81;;;25.53;34.98
56038;BME280;41907;47.848;9.000;2023-10-13T13:33:51;95570.31;;;25.66;36.55
56038;BME280;41907;47.848;9.000;2023-10-13T13:36:17;95571.13;;;25.59;35.38
56038;BME280;41907;47.848;9.000;2023-10-13T13:38:43;95560.75;;;25.47;34.78
56038;BME280;41907;47.848;9.000;2023-10-13T13:41:12;95559.91;;;25.50;35.72
56038;BME280;41907;47.848;9.000;2023-10-13T13:46:16;95548.16;;;25.56;34.71
56038;BME280;41907;47.848;9.000;2023-10-13T13:48:42;95560.69;;;25.50;35.53
56038;BME280;41907;47.848;9.000;2023-10-13T13:51:08;95556.69;;;25.58;35.80